Time;durP1;ratioP1;P1;durP2;ratioP2;P2;SDS_P1;SDS_P2;PMS_P1;PMS_P2;Temp;Humidity;BMP_temperature;BMP_pressure;BME280_temperature;BME280_humidity;BME280_pressure;Samples;Min_cycle;Max_cycle;Signal;HPM_P1;HPM_P2
2023/08/10 00:02:13;;;;;;;6.38;2.42;;;;;;;13.64;98.06;101153.72;5041844;28;20524;-66
2023/08/10 00:04:41;;;;;;;6.03;2.85;;;;;;;13.62;98.37;101149.47;5045000;28;20056;-65
2023/08/10 00:07:08;;;;;;;9.48;2.90;;;;;;;13.60;98.48;101154.03;5044268;28;20075;-66
2023/08/10 00:09:36;;;;;;;5.30;3.03;;;;;;;13.57;99.00;101160.34;5045610;28;20059;-67
2023/08/10 00:12:04;;;;;;;4.57;2.58;;;;;;;13.54;98.94;101164.97;5040117;28;20053;-67
2023/08/10 00:14:32;;;;;;;7.90;3.03;;;;;;;13.52;99.15;101157.13;5037179;28;20508;-66
2023/08/10 00:16:59;;;;;;;4.97;2.47;;;;;;;13.51;99.30;101163.38;5039111;28;20081;-66
2023/08/10 00:19:27;;;;;;;4.53;2.80;;;;;;;13.50;99.24;101168.75;5039283;28;20088;-66
2023/08/10 00:21:54;;;;;;;4.55;2.70;;;;;;;13.46;100.00;101168.09;5039478;28;20412;-65
2023/08/10 00:24:21;;;;;;;4.60;2.70;;;;;;;13.43;100.00;101166.50;5042217;28;20053;-66
2023/08/10 00:26:48;;;;;;;7.20;3.15;;;;;;;13.41;100.00;101171.00;5040361;28;20143;-66
2023/08/10 00:29:16;;;;;;;5.43;2.63;;;;;;;13.40;100.00;101169.31;5040287;28;20117;-65
2023/08/10 00:31:43;;;;;;;9.15;2.63;;;;;;;13.40;100.00;101168.47;5036968;28;20055;-68
2023/08/10 00:34:10;;;;;;;8.23;3.30;;;;;;;13.37;100.00;101169.53;5037790;28;20129;-66
2023/08/10 00:36:37;;;;;;;6.95;3.42;;;;;;;13.38;100.00;101159.81;5041696;28;20175;-66
2023/08/10 00:39:05;;;;;;;7.88;3.33;;;;;;;13.39;100.00;101167.63;5024347;28;20720;-65
2023/08/10 00:41:32;;;;;;;10.15;3.35;;;;;;;13.40;100.00;101163.19;5036569;28;20112;-66
2023/08/10 00:43:59;;;;;;;9.85;3.60;;;;;;;13.43;100.00;101170.94;5038459;28;20053;-66
2023/08/10 00:46:27;;;;;;;6.72;3.00;;;;;;;13.46;100.00;101178.66;5035339;28;20061;-66
2023/08/10 00:48:54;;;;;;;6.43;2.88;;;;;;;13.50;100.00;101174.03;5041953;28;20132;-67
2023/08/10 00:51:22;;;;;;;9.43;3.63;;;;;;;13.52;100.00;101172.16;5041916;28;20052;-65
2023/08/10 00:53:49;;;;;;;6.90;3.28;;;;;;;13.53;100.00;101176.50;5044160;28;20045;-66
2023/08/10 00:56:16;;;;;;;6.10;2.78;;;;;;;13.53;100.00;101177.34;5024937;28;20141;-66
2023/08/10 00:58:45;;;;;;;6.50;2.85;;;;;;;13.54;100.00;101181.69;5046378;28;20085;-66
2023/08/10 01:01:12;;;;;;;6.75;3.08;;;;;;;13.55;100.00;101177.25;5038071;28;20465;-66
2023/08/10 01:03:39;;;;;;;6.38;2.42;;;;;;;13.54;100.00;101176.41;5044186;28;20111;-67
2023/08/10 01:06:18;;;;;;;7.03;3.50;;;;;;;13.53;100.00;101176.50;5040410;28;20164;-64
2023/08/10 01:08:54;;;;;;;5.00;3.03;;;;;;;13.52;100.00;101178.31;5051188;28;20057;-66
2023/08/10 01:11:48;;;;;;;3.92;2.65;;;;;;;13.49;100.00;101181.13;5039726;28;20051;-66
2023/08/10 01:14:48;;;;;;;6.72;2.83;;;;;;;13.48;100.00;101189.16;5043528;28;20088;-65
2023/08/10 01:17:20;;;;;;;9.32;2.85;;;;;;;13.46;100.00;101189.25;5044541;28;20073;-67
2023/08/10 01:19:48;;;;;;;8.88;2.78;;;;;;;13.47;100.00;101185.66;5041074;28;20596;-66
2023/08/10 01:22:32;;;;;;;4.95;3.28;;;;;;;13.46;100.00;101189.25;5030230;28;20064;-66
2023/08/10 01:25:05;;;;;;;5.22;2.95;;;;;;;13.46;100.00;101191.03;5048738;28;20076;-67
2023/08/10 01:27:36;;;;;;;4.15;2.85;;;;;;;13.46;100.00;101198.97;5041279;28;20092;-70
2023/08/10 01:30:04;;;;;;;4.85;2.53;;;;;;;13.43;100.00;101184.16;5045280;28;20080;-66
2023/08/10 01:32:32;;;;;;;4.45;2.78;;;;;;;13.42;100.00;101193.03;5044775;28;20080;-66
2023/08/10 01:35:00;;;;;;;5.15;2.95;;;;;;;13.39;100.00;101195.88;5047005;28;20053;-67
2023/08/10 01:37:28;;;;;;;6.93;3.30;;;;;;;13.37;100.00;101187.16;5043450;28;20147;-66
2023/08/10 01:39:55;;;;;;;6.22;3.30;;;;;;;13.36;100.00;101196.06;5040617;28;20045;-66
2023/08/10 01:42:24;;;;;;;5.35;2.92;;;;;;;13.34;100.00;101196.16;5042133;28;20045;-67
2023/08/10 01:44:51;;;;;;;5.78;3.33;;;;;;;13.31;100.00;101190.19;5042567;28;20056;-66
2023/08/10 01:47:21;;;;;;;6.35;2.92;;;;;;;13.29;100.00;101189.47;5040178;28;20096;-67
2023/08/10 01:49:53;;;;;;;6.35;3.30;;;;;;;13.29;100.00;101189.47;5043710;28;20053;-66
2023/08/10 01:52:23;;;;;;;5.20;2.97;;;;;;;13.27;100.00;101184.25;5026174;28;20076;-66
2023/08/10 01:54:50;;;;;;;7.70;2.97;;;;;;;13.27;100.00;101186.03;5027479;28;20436;-67
2023/08/10 01:57:18;;;;;;;4.47;3.10;;;;;;;13.23;100.00;101198.59;5042961;28;20090;-65
2023/08/10 01:59:45;;;;;;;4.32;2.95;;;;;;;13.21;100.00;101192.53;5036007;28;20145;-65
2023/08/10 02:02:13;;;;;;;8.07;2.92;;;;;;;13.18;100.00;101188.25;5039085;28;20490;-66
2023/08/10 02:04:40;;;;;;;7.25;2.85;;;;;;;13.18;100.00;101190.06;5043325;28;20077;-66
2023/08/10 02:07:07;;;;;;;4.75;2.58;;;;;;;13.15;100.00;101191.13;5042579;28;20056;-66
2023/08/10 02:09:36;;;;;;;5.05;3.15;;;;;;;13.12;100.00;101180.72;5045237;28;20049;-66
2023/08/10 02:12:03;;;;;;;8.80;2.72;;;;;;;13.12;100.00;101185.16;5037094;28;20128;-66
2023/08/10 02:14:31;;;;;;;4.22;2.50;;;;;;;13.13;100.00;101192.97;5039773;28;20148;-65
2023/08/10 02:16:58;;;;;;;5.28;2.47;;;;;;;13.15;100.00;101196.41;5044477;28;20136;-66
2023/08/10 02:19:25;;;;;;;7.47;3.25;;;;;;;13.17;100.00;101189.22;5039422;28;20049;-66
2023/08/10 02:21:53;;;;;;;6.53;2.63;;;;;;;13.18;100.00;101187.41;5046005;28;20156;-66
2023/08/10 02:24:20;;;;;;;6.20;2.63;;;;;;;13.19;100.00;101197.03;5048071;28;20139;-66
2023/08/10 02:26:53;;;;;;;5.75;2.50;;;;;;;13.16;100.00;101198.09;5043513;28;20064;-66
2023/08/10 02:29:46;;;;;;;6.22;2.58;;;;;;;13.15;100.00;101198.19;5041625;28;20102;-65
2023/08/10 02:32:16;;;;;;;4.53;2.03;;;;;;;13.13;100.00;101198.28;5042823;28;20104;-66
2023/08/10 02:34:43;;;;;;;8.02;2.83;;;;;;;13.10;100.00;101193.19;5042282;28;20152;-66
2023/08/10 02:37:11;;;;;;;10.10;2.78;;;;;;;13.09;100.00;101195.91;5040421;28;20489;-66
2023/08/10 02:39:38;;;;;;;5.70;2.78;;;;;;;13.06;100.00;101191.66;5036935;28;20057;-65
2023/08/10 02:42:05;;;;;;;4.90;2.25;;;;;;;13.05;100.00;101194.38;5036250;28;20072;-66
2023/08/10 02:44:33;;;;;;;3.47;2.38;;;;;;;13.00;100.00;101186.72;5040858;28;20385;-65
2023/08/10 02:47:00;;;;;;;8.93;2.97;;;;;;;12.97;100.00;101184.28;5044747;28;20051;-65
2023/08/10 02:49:27;;;;;;;8.02;3.40;;;;;;;12.95;100.00;101185.31;5041974;28;20139;-66
2023/08/10 02:51:55;;;;;;;4.57;2.30;;;;;;;12.93;100.00;101186.25;5039339;28;20809;-65
2023/08/10 02:54:22;;;;;;;7.00;2.83;;;;;;;12.91;100.00;101189.94;5042130;28;20420;-66
2023/08/10 02:56:49;;;;;;;3.92;2.42;;;;;;;12.89;100.00;101189.19;5035581;28;20088;-65
2023/08/10 02:59:16;;;;;;;4.20;2.63;;;;;;;12.88;100.00;101190.97;5040822;28;20148;-65
2023/08/10 03:01:45;;;;;;;6.80;2.85;;;;;;;12.87;100.00;101193.69;5041552;28;20061;-65
2023/08/10 03:04:12;;;;;;;6.90;2.55;;;;;;;12.85;100.00;101193.78;5042880;28;20056;-66
2023/08/10 03:06:40;;;;;;;5.10;2.30;;;;;;;12.83;100.00;101200.09;5039242;28;20053;-65
2023/08/10 03:09:07;;;;;;;10.02;2.65;;;;;;;12.81;100.00;101205.47;5041097;28;20156;-66
2023/08/10 03:11:34;;;;;;;7.20;2.75;;;;;;;12.79;100.00;101207.38;5038039;28;20076;-66
2023/08/10 03:14:02;;;;;;;7.47;2.70;;;;;;;12.75;100.00;101205.00;5038852;28;20057;-66
2023/08/10 03:16:30;;;;;;;4.95;2.47;;;;;;;12.73;100.00;101209.50;5041489;28;20298;-66
2023/08/10 03:18:57;;;;;;;5.82;2.40;;;;;;;12.67;100.00;101211.56;5038120;28;20060;-65
2023/08/10 03:21:24;;;;;;;4.45;2.28;;;;;;;12.62;100.00;101211.00;5035520;28;20076;-66
2023/08/10 03:23:52;;;;;;;6.28;2.35;;;;;;;12.60;100.00;101212.00;5040412;28;20136;-66
2023/08/10 03:26:19;;;;;;;5.38;2.05;;;;;;;12.58;100.00;101212.13;5039737;28;20088;-65
2023/08/10 03:28:46;;;;;;;10.40;2.47;;;;;;;12.57;100.00;101212.22;5039374;28;20132;-68
2023/08/10 03:31:14;;;;;;;5.70;2.42;;;;;;;12.58;100.00;101213.91;5040468;28;20182;-65
2023/08/10 03:33:41;;;;;;;5.93;2.10;;;;;;;12.58;100.00;101213.91;5038107;28;20079;-66
2023/08/10 03:36:08;;;;;;;4.15;1.85;;;;;;;12.57;100.00;101218.34;5043314;28;20087;-66
2023/08/10 03:38:36;;;;;;;6.28;2.45;;;;;;;12.59;100.00;101219.09;5058956;28;20103;-65
2023/08/10 03:41:03;;;;;;;10.15;2.65;;;;;;;12.61;100.00;101221.66;5043953;28;20158;-66
2023/08/10 03:43:30;;;;;;;8.38;2.30;;;;;;;12.64;100.00;101222.31;5033172;28;20506;-65
2023/08/10 03:45:57;;;;;;;5.45;2.70;;;;;;;12.66;100.00;101223.09;5038979;28;20064;-66
2023/08/10 03:48:25;;;;;;;8.43;2.50;;;;;;;12.67;100.00;101227.44;5037233;28;20095;-66
2023/08/10 03:50:52;;;;;;;5.72;2.47;;;;;;;12.67;100.00;101218.66;5038195;28;20069;-65
2023/08/10 03:53:19;;;;;;;9.20;2.55;;;;;;;12.66;100.00;101212.53;5038417;28;20207;-66
2023/08/10 03:55:46;;;;;;;10.25;2.72;;;;;;;12.66;100.00;101209.03;5033398;28;20132;-65
2023/08/10 03:58:14;;;;;;;9.52;2.50;;;;;;;12.64;100.00;101217.03;5037516;28;20493;-65
2023/08/10 04:00:44;;;;;;;9.95;2.85;;;;;;;12.61;100.00;101225.16;5039910;28;20085;-64
2023/08/10 04:03:12;;;;;;;6.03;2.15;;;;;;;12.56;100.00;101224.56;5039223;28;20059;-66
2023/08/10 04:05:39;;;;;;;4.35;1.70;;;;;;;12.56;100.00;101240.41;5042759;28;20130;-66
2023/08/10 04:08:10;;;;;;;12.40;2.40;;;;;;;12.55;100.00;101236.03;5041628;28;20073;-66
2023/08/10 04:10:37;;;;;;;8.88;2.58;;;;;;;12.55;100.00;101241.31;5043635;28;20438;-65
2023/08/10 04:13:05;;;;;;;7.15;2.55;;;;;;;12.58;100.00;101243.81;5039404;28;20103;-65
2023/08/10 04:15:32;;;;;;;6.60;2.63;;;;;;;12.60;100.00;101239.28;5038969;28;20049;-66
2023/08/10 04:17:59;;;;;;;13.38;3.03;;;;;;;12.63;100.00;101244.38;5040128;28;20600;-65
2023/08/10 04:20:27;;;;;;;10.05;3.00;;;;;;;12.70;100.00;101236.09;5034401;28;20410;-66
2023/08/10 04:22:57;;;;;;;8.88;2.88;;;;;;;12.76;100.00;101246.31;5043732;28;20583;-66
2023/08/10 04:25:25;;;;;;;7.43;2.40;;;;;;;12.78;100.00;101247.94;5037031;28;20056;-66
2023/08/10 04:27:52;;;;;;;5.78;2.47;;;;;;;12.82;100.00;101245.97;5034056;28;20155;-66
2023/08/10 04:33:36;;;;;;;6.60;2.70;;;;;;;12.97;100.00;101241.56;5041164;28;20056;-65
2023/08/10 04:36:03;;;;;;;6.35;2.85;;;;;;;13.03;100.00;101242.06;5038296;28;20481;-66
2023/08/10 04:38:30;;;;;;;8.90;2.80;;;;;;;13.11;100.00;101239.81;5039110;28;20124;-65
2023/08/10 04:40:57;;;;;;;5.50;2.40;;;;;;;13.21;100.00;101241.91;5034332;28;20132;-67
2023/08/10 04:43:25;;;;;;;12.48;2.97;;;;;;;13.29;100.00;101245.84;5044385;28;20188;-65
2023/08/10 04:45:52;;;;;;;9.35;2.10;;;;;;;13.36;100.00;101247.13;5042135;28;20163;-66
2023/08/10 04:48:20;;;;;;;7.75;2.28;;;;;;;13.42;100.00;101240.66;5045930;28;20537;-65
2023/08/10 04:50:47;;;;;;;7.10;2.60;;;;;;;13.47;100.00;101245.66;5037995;28;20053;-67
2023/08/10 04:53:14;;;;;;;8.57;2.47;;;;;;;13.53;100.00;101255.84;5041813;28;20049;-66
2023/08/10 04:55:42;;;;;;;6.50;2.25;;;;;;;13.59;100.00;101261.59;5046325;28;20625;-67
2023/08/10 04:58:09;;;;;;;7.60;2.47;;;;;;;13.68;100.00;101260.19;5041983;28;20139;-66
2023/08/10 05:00:37;;;;;;;6.28;2.03;;;;;;;13.77;100.00;101258.78;5046826;28;20151;-67
2023/08/10 05:03:04;;;;;;;8.63;2.92;;;;;;;13.84;100.00;101262.75;5027849;28;20053;-66
2023/08/10 05:05:32;;;;;;;8.25;2.22;;;;;;;13.91;100.00;101259.63;5039724;28;20136;-67
2023/08/10 05:07:59;;;;;;;6.53;2.58;;;;;;;14.00;100.00;101263.47;5040806;28;20210;-65
2023/08/10 05:10:27;;;;;;;11.20;2.17;;;;;;;14.07;100.00;101269.25;5042287;28;20088;-67
2023/08/10 05:12:54;;;;;;;11.88;2.25;;;;;;;14.12;100.00;101273.28;5041612;28;20132;-65
2023/08/10 05:15:21;;;;;;;7.43;2.53;;;;;;;14.18;100.00;101272.94;5041825;28;20133;-64
2023/08/10 05:17:49;;;;;;;4.63;1.83;;;;;;;14.26;100.00;101276.88;5042173;28;20053;-65
2023/08/10 05:20:17;;;;;;;8.55;2.65;;;;;;;14.33;100.00;101280.84;5040726;28;20049;-67
2023/08/10 05:22:44;;;;;;;5.13;2.05;;;;;;;14.37;99.90;101280.53;5042583;28;20141;-64
2023/08/10 05:25:11;;;;;;;9.23;2.22;;;;;;;14.42;100.00;101285.53;5044475;28;20103;-65
2023/08/10 05:27:42;;;;;;;11.48;2.13;;;;;;;14.42;99.56;101290.84;5034770;28;20053;-64
2023/08/10 05:30:11;;;;;;;8.77;1.77;;;;;;;14.41;98.96;101287.34;5038459;28;20049;-64
2023/08/10 05:32:39;;;;;;;9.10;2.45;;;;;;;14.47;98.16;101293.19;5042383;28;20433;-65
2023/08/10 05:35:07;;;;;;;15.80;3.17;;;;;;;14.51;96.33;101295.56;5043508;28;20474;-65
2023/08/10 05:37:35;;;;;;;11.55;2.42;;;;;;;14.56;96.14;101290.81;5035196;28;20139;-65
2023/08/10 05:40:09;;;;;;;9.57;2.90;;;;;;;14.59;93.84;101297.69;5035674;28;20165;-65
2023/08/10 05:42:40;;;;;;;13.27;2.15;;;;;;;14.67;93.63;101298.06;5041785;28;20061;-65
2023/08/10 05:45:08;;;;;;;7.47;2.33;;;;;;;14.69;91.77;101302.31;5048942;28;20107;-66
2023/08/10 05:47:36;;;;;;;10.98;2.45;;;;;;;14.80;92.09;101292.81;5037220;28;20620;-65
2023/08/10 05:50:04;;;;;;;10.50;3.10;;;;;;;14.88;90.70;101298.47;5043183;28;20116;-65
2023/08/10 05:52:31;;;;;;;13.85;2.53;;;;;;;15.03;90.77;101296.59;5044611;28;20061;-65
2023/08/10 05:54:58;;;;;;;14.70;2.92;;;;;;;15.13;90.15;101292.34;5042849;28;20057;-66
2023/08/10 05:57:25;;;;;;;14.75;3.25;;;;;;;15.27;89.32;101300.25;5042286;28;20052;-65
2023/08/10 05:59:53;;;;;;;15.25;2.83;;;;;;;15.47;87.69;101296.22;5047940;28;20815;-65
2023/08/10 06:02:22;;;;;;;11.65;2.22;;;;;;;15.63;86.58;101299.53;5038165;28;20159;-65
2023/08/10 06:04:49;;;;;;;9.38;2.42;;;;;;;15.69;86.09;101300.94;5041107;28;20041;-65
2023/08/10 06:07:16;;;;;;;8.88;2.65;;;;;;;15.75;85.69;101294.34;5038143;28;20084;-66
2023/08/10 06:09:43;;;;;;;10.43;2.88;;;;;;;15.83;84.44;101302.63;5040406;28;20057;-66
2023/08/10 06:12:12;;;;;;;8.13;2.38;;;;;;;15.90;83.11;101307.41;5044522;28;20073;-66
2023/08/10 06:14:39;;;;;;;10.00;2.25;;;;;;;15.95;82.81;101301.78;5039968;28;20541;-66
2023/08/10 06:17:06;;;;;;;10.48;3.15;;;;;;;15.94;81.33;101310.69;5043708;28;20084;-65
2023/08/10 06:19:34;;;;;;;9.52;3.00;;;;;;;15.98;81.33;101313.97;5040587;28;20605;-66
2023/08/10 06:22:53;;;;;;;13.45;2.45;;;;;;;15.95;78.15;101313.22;5035360;28;20056;-65
2023/08/10 06:25:21;;;;;;;12.52;2.78;;;;;;;16.02;78.51;101313.63;5036610;28;20059;-66
2023/08/10 06:27:48;;;;;;;13.05;2.28;;;;;;;16.20;78.15;101317.63;5047036;28;20442;-66
2023/08/10 06:30:17;;;;;;;8.73;2.22;;;;;;;16.26;76.32;101316.38;5034461;28;20072;-66
2023/08/10 06:32:44;;;;;;;11.23;2.45;;;;;;;16.24;74.58;101320.09;5042030;28;21311;-66
2023/08/10 06:35:12;;;;;;;9.13;3.13;;;;;;;16.20;74.60;101317.63;5029539;28;20060;-65
2023/08/10 06:37:39;;;;;;;13.13;2.72;;;;;;;16.31;74.65;101322.19;5033031;28;20057;-65
2023/08/10 06:40:09;;;;;;;5.70;1.80;;;;;;;16.41;74.39;101320.56;5037750;28;20109;-65
2023/08/10 06:42:37;;;;;;;7.28;2.53;;;;;;;16.44;73.97;101323.00;5040178;28;20049;-66
2023/08/10 06:45:05;;;;;;;19.02;2.65;;;;;;;16.51;72.36;101331.38;5037183;28;20057;-66
2023/08/10 06:47:33;;;;;;;18.88;2.20;;;;;;;16.48;69.66;101334.28;5038791;28;20095;-66
2023/08/10 06:50:00;;;;;;;15.35;3.10;;;;;;;16.55;71.53;101326.69;5038019;28;20775;-65
2023/08/10 06:52:28;;;;;;;14.07;2.67;;;;;;;16.74;71.21;101331.53;5034429;28;20069;-66
2023/08/10 06:54:56;;;;;;;8.23;2.38;;;;;;;16.82;70.48;101329.16;5061655;22;20512;-62
2023/08/10 06:57:23;;;;;;;13.38;2.50;;;;;;;16.90;70.22;101326.78;5039660;28;20081;-63
2023/08/10 06:59:50;;;;;;;12.10;2.38;;;;;;;17.01;69.47;101332.16;5039290;28;20100;-61
2023/08/10 07:02:21;;;;;;;8.85;1.95;;;;;;;17.09;68.43;101337.75;5033968;28;20037;-63
2023/08/10 07:04:48;;;;;;;14.10;2.30;;;;;;;17.14;68.28;101340.91;5029819;28;20136;-61
2023/08/10 07:07:15;;;;;;;10.00;2.20;;;;;;;17.07;68.54;101341.50;5016127;28;20084;-62
2023/08/10 07:09:43;;;;;;;9.70;2.20;;;;;;;17.08;68.24;101340.53;5015768;28;20045;-61
2023/08/10 07:12:11;;;;;;;10.32;3.25;;;;;;;17.02;68.38;101348.94;5013881;28;20046;-64
2023/08/10 07:14:38;;;;;;;6.72;2.45;;;;;;;16.83;68.53;101341.50;5020420;28;20574;-62
2023/08/10 07:17:05;;;;;;;10.20;2.25;;;;;;;16.77;69.10;101347.28;5022577;28;20077;-63
2023/08/10 07:19:34;;;;;;;9.32;2.55;;;;;;;16.88;68.83;101350.81;5014588;28;20524;-61
2023/08/10 07:22:02;;;;;;;7.88;2.47;;;;;;;17.10;68.28;101351.91;5016100;28;20054;-64
2023/08/10 07:24:29;;;;;;;14.55;2.40;;;;;;;17.33;67.78;101358.16;5018748;28;20139;-63
2023/08/10 07:26:56;;;;;;;10.82;2.45;;;;;;;17.41;67.61;101351.28;5021536;28;20192;-63
2023/08/10 07:29:24;;;;;;;9.30;2.13;;;;;;;17.53;66.75;101349.50;5023999;28;20137;-61
2023/08/10 07:31:51;;;;;;;10.68;2.25;;;;;;;17.45;66.45;101350.09;5018321;28;20363;-63
2023/08/10 07:34:19;;;;;;;7.78;2.30;;;;;;;17.21;66.39;101346.63;5018923;28;20083;-63
2023/08/10 07:36:46;;;;;;;7.82;2.30;;;;;;;17.14;66.76;101346.22;5017873;28;20725;-62
2023/08/10 07:39:13;;;;;;;8.00;1.92;;;;;;;17.25;64.58;101344.59;5014051;28;20062;-63
2023/08/10 07:44:57;;;;;;;11.07;2.08;;;;;;;17.41;62.62;101351.28;5018038;28;20339;-63
2023/08/10 07:47:24;;;;;;;6.13;1.63;;;;;;;17.43;62.11;101359.16;5021619;28;20144;-63
2023/08/10 07:49:51;;;;;;;8.27;2.00;;;;;;;17.65;61.33;101361.88;5020495;28;20058;-61
2023/08/10 07:52:19;;;;;;;9.65;1.90;;;;;;;17.93;61.79;101370.44;5013600;28;20077;-64
2023/08/10 07:54:46;;;;;;;9.90;2.05;;;;;;;18.20;60.59;101370.06;5020168;28;20589;-61
2023/08/10 07:57:13;;;;;;;7.13;2.00;;;;;;;18.35;60.52;101376.00;5025430;28;20543;-62
2023/08/10 07:59:40;;;;;;;8.00;2.10;;;;;;;18.25;57.75;101377.72;5024125;28;20057;-63
2023/08/10 08:02:09;;;;;;;8.65;2.00;;;;;;;18.25;57.78;101375.03;5021036;28;20086;-64
2023/08/10 08:04:36;;;;;;;9.43;2.22;;;;;;;18.04;58.22;101382.91;5012042;28;20581;-63
2023/08/10 08:07:04;;;;;;;10.57;1.95;;;;;;;17.94;58.17;101383.63;5015505;28;20530;-62
2023/08/10 08:09:31;;;;;;;7.13;1.55;;;;;;;18.14;57.58;101386.53;5019240;28;20085;-63
2023/08/10 08:11:59;;;;;;;8.90;1.75;;;;;;;18.23;57.14;101378.66;5024362;28;20054;-63
2023/08/10 08:14:26;;;;;;;4.72;1.58;;;;;;;18.28;56.88;101380.09;5026529;28;20042;-62
2023/08/10 08:16:53;;;;;;;5.03;1.85;;;;;;;18.53;56.15;101365.69;5019632;28;20093;-63
2023/08/10 08:19:21;;;;;;;6.88;1.67;;;;;;;18.61;54.17;101379.25;5023375;28;20099;-63
2023/08/10 08:21:48;;;;;;;7.20;1.42;;;;;;;18.50;54.81;101369.44;5027611;28;20132;-64
2023/08/10 08:27:57;;;;;;;8.20;2.00;;;;;;;18.35;54.17;101376.00;5026318;28;20067;-59
2023/08/10 08:30:26;;;;;;;8.15;2.00;;;;;;;18.09;53.32;101381.56;5017600;28;20136;-63
2023/08/10 08:32:53;;;;;;;6.63;1.75;;;;;;;17.98;52.83;101383.38;5026216;28;20053;-64
2023/08/10 08:35:21;;;;;;;4.35;1.60;;;;;;;18.02;53.27;101375.03;5028575;28;20145;-63
2023/08/10 08:37:48;;;;;;;7.22;1.33;;;;;;;18.01;52.89;101372.47;5027460;28;20145;-64
2023/08/10 08:40:15;;;;;;;8.63;1.52;;;;;;;18.01;53.22;101369.81;5023082;28;20180;-63
2023/08/10 08:42:44;;;;;;;7.75;1.63;;;;;;;18.23;53.91;101375.97;5031589;28;20071;-64
2023/08/10 08:45:11;;;;;;;7.25;1.67;;;;;;;18.42;53.58;101366.56;5028422;28;20072;-62
2023/08/10 08:47:39;;;;;;;9.93;1.85;;;;;;;18.75;52.97;101370.16;5022800;28;20141;-63
2023/08/10 08:50:07;;;;;;;10.20;2.22;;;;;;;19.00;52.99;101369.81;5023379;28;20093;-63
2023/08/10 08:52:34;;;;;;;5.40;1.58;;;;;;;19.20;52.00;101381.53;5024809;28;20053;-63
2023/08/10 08:55:02;;;;;;;15.57;2.58;;;;;;;18.75;53.05;101380.81;5016832;28;20133;-62
2023/08/10 08:57:29;;;;;;;6.82;2.33;;;;;;;19.07;52.74;101389.69;5023949;28;20216;-64
2023/08/10 08:59:57;;;;;;;8.55;1.80;;;;;;;19.30;52.14;101377.09;5026154;28;20100;-62
2023/08/10 09:02:24;;;;;;;9.55;1.90;;;;;;;19.45;51.56;101385.63;5023388;28;20103;-63
2023/08/10 09:04:52;;;;;;;7.20;1.60;;;;;;;19.58;50.95;101377.44;5027517;28;20165;-61
2023/08/10 09:07:19;;;;;;;10.38;2.35;;;;;;;19.68;51.16;101368.56;5026229;28;20116;-61
2023/08/10 09:09:46;;;;;;;5.88;2.03;;;;;;;19.70;51.28;101379.94;5023419;28;20061;-61
2023/08/10 09:12:29;;;;;;;5.05;1.63;;;;;;;19.49;51.07;101379.91;5027568;28;20077;-64
2023/08/10 09:15:08;;;;;;;6.82;1.63;;;;;;;19.37;50.89;101377.44;5020398;28;20152;-64
2023/08/10 09:17:38;;;;;;;7.85;1.70;;;;;;;19.17;51.41;101374.59;5028667;28;20057;-62
2023/08/10 09:20:09;;;;;;;7.93;1.60;;;;;;;19.09;51.73;101377.09;5019288;28;20140;-63
2023/08/10 09:22:38;;;;;;;6.43;1.42;;;;;;;19.33;50.45;101373.34;5019656;28;20612;-63
2023/08/10 09:25:06;;;;;;;7.95;1.83;;;;;;;19.52;50.58;101376.16;5027144;28;20095;-63
2023/08/10 09:27:34;;;;;;;3.25;1.42;;;;;;;19.43;50.20;101377.75;5023383;28;20144;-62
2023/08/10 09:30:04;;;;;;;8.75;1.55;;;;;;;19.04;51.60;101384.59;5018305;28;20292;-68
2023/08/10 09:32:32;;;;;;;8.68;1.88;;;;;;;18.99;52.32;101376.13;5018577;28;20058;-64
2023/08/10 09:35:00;;;;;;;6.50;1.85;;;;;;;19.07;52.49;101375.50;5025069;28;20045;-63
2023/08/10 09:37:27;;;;;;;5.55;1.88;;;;;;;19.15;52.15;101373.06;5021499;28;20465;-64
2023/08/10 09:39:56;;;;;;;7.00;1.30;;;;;;;18.95;52.58;101383.53;5025523;28;20398;-64
2023/08/10 09:42:24;;;;;;;11.05;1.98;;;;;;;18.86;52.94;101380.78;5019734;28;20713;-64
2023/08/10 09:44:51;;;;;;;3.72;1.30;;;;;;;19.02;52.25;101383.91;5021339;28;20065;-64
2023/08/10 09:47:19;;;;;;;2.60;1.25;;;;;;;19.29;50.82;101380.75;5016495;28;20358;-63
2023/08/10 09:50:00;;;;;;;10.65;2.13;;;;;;;19.25;50.80;101383.81;5018289;28;20068;-62
2023/08/10 09:52:33;;;;;;;7.20;1.70;;;;;;;19.59;51.38;101384.50;5019279;28;20196;-62
2023/08/10 09:55:07;;;;;;;7.90;2.05;;;;;;;19.84;51.47;101384.09;5026444;28;20075;-62
2023/08/10 09:57:40;;;;;;;8.05;1.67;;;;;;;20.08;50.10;101377.63;5022577;28;20053;-62
2023/08/10 10:00:17;;;;;;;9.45;1.67;;;;;;;20.17;50.28;101388.38;5022587;28;20555;-63
2023/08/10 10:02:46;;;;;;;13.27;1.88;;;;;;;20.25;49.78;101379.66;5023599;28;20073;-63
2023/08/10 10:05:19;;;;;;;7.18;1.58;;;;;;;20.35;49.65;101379.69;5020360;28;20141;-63
2023/08/10 10:08:03;;;;;;;8.65;1.88;;;;;;;19.89;50.29;101381.03;5021131;28;20077;-64
2023/08/10 10:10:32;;;;;;;7.68;2.20;;;;;;;19.91;50.71;101376.44;5028513;28;20105;-64
2023/08/10 10:13:01;;;;;;;5.22;1.80;;;;;;;20.01;50.10;101381.81;5016095;28;20085;-65
2023/08/10 10:15:29;;;;;;;11.93;1.77;;;;;;;19.66;50.21;101377.69;5015790;28;20506;-63
2023/08/10 10:17:56;;;;;;;8.57;2.17;;;;;;;19.62;50.48;101377.09;5020706;28;20077;-64
2023/08/10 10:20:24;;;;;;;10.02;2.13;;;;;;;19.65;51.49;101382.16;5025269;28;20801;-62
2023/08/10 10:22:51;;;;;;;5.75;1.60;;;;;;;19.90;50.50;101377.38;5021336;28;20145;-63
2023/08/10 10:25:19;;;;;;;7.85;1.80;;;;;;;20.14;49.73;101377.94;5022680;28;20080;-62
2023/08/10 10:27:49;;;;;;;8.07;1.70;;;;;;;20.04;48.66;101374.38;5022056;28;20083;-61
2023/08/10 10:30:17;;;;;;;3.75;1.40;;;;;;;19.90;49.40;101374.72;5023983;28;20073;-63
2023/08/10 10:32:50;;;;;;;9.90;2.40;;;;;;;20.04;49.11;101371.72;5020314;28;20540;-64
2023/08/10 10:35:43;;;;;;;4.03;1.35;;;;;;;20.12;49.07;101374.53;5019522;28;20053;-63
2023/08/10 10:38:15;;;;;;;4.05;1.60;;;;;;;20.08;49.52;101369.59;5020983;28;20046;-64
2023/08/10 10:40:42;;;;;;;6.07;1.55;;;;;;;20.16;49.40;101370.63;4996903;28;20060;-64
2023/08/10 10:43:11;;;;;;;6.95;1.73;;;;;;;19.96;49.41;101361.69;5023231;28;20262;-63
2023/08/10 10:45:40;;;;;;;5.80;1.63;;;;;;;20.13;49.53;101365.56;5022454;28;20069;-64
2023/08/10 10:48:12;;;;;;;4.70;1.50;;;;;;;20.21;49.57;101364.88;5018208;28;20061;-64
2023/08/10 10:50:39;;;;;;;6.60;1.48;;;;;;;20.00;49.21;101366.78;5021524;28;20563;-62
2023/08/10 10:53:13;;;;;;;5.82;1.55;;;;;;;20.08;49.67;101359.75;5020676;28;20148;-64
2023/08/10 10:55:43;;;;;;;12.38;2.58;;;;;;;20.16;50.18;101362.59;5027065;28;20099;-64
2023/08/10 10:58:14;;;;;;;6.95;1.40;;;;;;;20.56;49.46;101363.63;5022090;28;20081;-64
2023/08/10 11:00:43;;;;;;;10.23;1.92;;;;;;;20.86;48.22;101357.34;5027868;28;20168;-64
2023/08/10 11:03:17;;;;;;;5.85;1.20;;;;;;;21.04;47.82;101338.75;5025570;28;20072;-63
2023/08/10 11:05:45;;;;;;;8.05;1.90;;;;;;;21.29;47.72;101342.66;5015256;28;20073;-63
2023/08/10 11:08:14;;;;;;;6.40;1.70;;;;;;;21.31;46.34;101346.06;5018452;28;20140;-62
2023/08/10 11:10:43;;;;;;;5.00;1.30;;;;;;;21.25;46.06;101344.78;5018700;28;20053;-64
2023/08/10 11:13:11;;;;;;;8.38;1.92;;;;;;;21.65;45.38;101347.28;5021956;28;20518;-63
2023/08/10 11:15:38;;;;;;;5.85;1.35;;;;;;;21.51;45.93;101341.53;5022543;28;20069;-61
2023/08/10 11:18:10;;;;;;;5.65;1.52;;;;;;;21.99;45.83;101339.56;5020950;28;20045;-64
2023/08/10 11:20:51;;;;;;;9.50;1.98;;;;;;;22.15;45.96;101340.81;5022014;28;20136;-63
2023/08/10 11:23:18;;;;;;;7.45;1.55;;;;;;;22.55;44.09;101343.13;5020690;28;20359;-64
2023/08/10 11:25:49;;;;;;;7.07;1.77;;;;;;;22.38;44.32;101343.94;5021698;28;20410;-65
2023/08/10 11:28:18;;;;;;;6.75;1.85;;;;;;;22.31;44.88;101343.69;5021648;28;20108;-64
2023/08/10 11:30:45;;;;;;;6.90;1.67;;;;;;;22.22;44.00;101334.72;5014508;28;20061;-64
2023/08/10 11:33:14;;;;;;;3.72;1.48;;;;;;;22.06;45.16;101339.81;5019444;28;20081;-63
2023/08/10 11:35:51;;;;;;;6.18;1.48;;;;;;;21.95;45.49;101346.22;5022438;28;20553;-64
2023/08/10 11:38:19;;;;;;;5.10;1.88;;;;;;;22.11;45.36;101342.06;5023146;28;20053;-64